sensor_id;sensor_type;location;lat;lon;timestamp;P1;durP1;ratioP1;P2;durP2;ratioP2
75096;SDS011;63684;47.964;11.186;2024-02-26T00:01:51;0.77;;;0.70;;
75096;SDS011;63684;47.964;11.186;2024-02-26T00:04:17;3.03;;;0.67;;
75096;SDS011;63684;47.964;11.186;2024-02-26T00:06:43;0.77;;;0.40;;
75096;SDS011;63684;47.964;11.186;2024-02-26T00:09:08;0.63;;;0.60;;
75096;SDS011;63684;47.964;11.186;2024-02-26T00:11:37;0.63;;;0.60;;
75096;SDS011;63684;47.964;11.186;2024-02-26T00:14:03;0.77;;;0.53;;
75096;SDS011;63684;47.964;11.186;2024-02-26T00:16:29;0.60;;;0.60;;
75096;SDS011;63684;47.964;11.186;2024-02-26T00:18:54;0.60;;;0.50;;
75096;SDS011;63684;47.964;11.186;2024-02-26T00:21:20;2.17;;;0.40;;
75096;SDS011;63684;47.964;11.186;2024-02-26T00:23:46;0.87;;;0.40;;
75096;SDS011;63684;47.964;11.186;2024-02-26T00:26:11;1.23;;;0.60;;
75096;SDS011;63684;47.964;11.186;2024-02-26T00:28:37;0.50;;;0.50;;
75096;SDS011;63684;47.964;11.186;2024-02-26T00:31:02;1.00;;;0.60;;
75096;SDS011;63684;47.964;11.186;2024-02-26T00:33:28;0.50;;;0.40;;
75096;SDS011;63684;47.964;11.186;2024-02-26T00:35:54;0.77;;;0.50;;
75096;SDS011;63684;47.964;11.186;2024-02-26T00:38:19;0.60;;;0.50;;
75096;SDS011;63684;47.964;11.186;2024-02-26T00:40:45;0.40;;;0.40;;
75096;SDS011;63684;47.964;11.186;2024-02-26T00:43:11;0.40;;;0.40;;
75096;SDS011;63684;47.964;11.186;2024-02-26T00:45:37;0.50;;;0.50;;
75096;SDS011;63684;47.964;11.186;2024-02-26T00:48:02;0.40;;;0.40;;
75096;SDS011;63684;47.964;11.186;2024-02-26T00:50:30;0.50;;;0.50;;
75096;SDS011;63684;47.964;11.186;2024-02-26T00:52:56;0.60;;;0.50;;
75096;SDS011;63684;47.964;11.186;2024-02-26T00:55:22;0.87;;;0.60;;
75096;SDS011;63684;47.964;11.186;2024-02-26T00:57:48;0.83;;;0.40;;
75096;SDS011;63684;47.964;11.186;2024-02-26T01:00:13;0.50;;;0.50;;
75096;SDS011;63684;47.964;11.186;2024-02-26T01:02:39;1.03;;;0.40;;
75096;SDS011;63684;47.964;11.186;2024-02-26T01:05:07;0.70;;;0.40;;
75096;SDS011;63684;47.964;11.186;2024-02-26T01:07:34;0.40;;;0.40;;
75096;SDS011;63684;47.964;11.186;2024-02-26T01:10:04;0.40;;;0.40;;
75096;SDS011;63684;47.964;11.186;2024-02-26T01:12:31;0.30;;;0.30;;
75096;SDS011;63684;47.964;11.186;2024-02-26T01:14:57;0.60;;;0.47;;
75096;SDS011;63684;47.964;11.186;2024-02-26T01:17:22;1.00;;;0.40;;
75096;SDS011;63684;47.964;11.186;2024-02-26T01:19:48;0.40;;;0.40;;
75096;SDS011;63684;47.964;11.186;2024-02-26T01:22:13;0.40;;;0.40;;
75096;SDS011;63684;47.964;11.186;2024-02-26T01:24:39;0.40;;;0.40;;
75096;SDS011;63684;47.964;11.186;2024-02-26T01:27:04;0.67;;;0.50;;
75096;SDS011;63684;47.964;11.186;2024-02-26T01:29:31;0.57;;;0.50;;
75096;SDS011;63684;47.964;11.186;2024-02-26T01:31:57;1.63;;;1.03;;
75096;SDS011;63684;47.964;11.186;2024-02-26T01:34:22;0.70;;;0.60;;
75096;SDS011;63684;47.964;11.186;2024-02-26T01:36:48;0.60;;;0.60;;
75096;SDS011;63684;47.964;11.186;2024-02-26T01:39:13;1.13;;;0.60;;
75096;SDS011;63684;47.964;11.186;2024-02-26T01:41:39;0.50;;;0.50;;
75096;SDS011;63684;47.964;11.186;2024-02-26T01:44:05;1.53;;;0.50;;
75096;SDS011;63684;47.964;11.186;2024-02-26T01:46:31;0.40;;;0.40;;
75096;SDS011;63684;47.964;11.186;2024-02-26T01:49:00;0.40;;;0.40;;
75096;SDS011;63684;47.964;11.186;2024-02-26T01:51:27;0.40;;;0.40;;
75096;SDS011;63684;47.964;11.186;2024-02-26T01:53:53;0.40;;;0.40;;
75096;SDS011;63684;47.964;11.186;2024-02-26T01:56:18;1.40;;;0.47;;
75096;SDS011;63684;47.964;11.186;2024-02-26T01:58:45;0.60;;;0.37;;
75096;SDS011;63684;47.964;11.186;2024-02-26T02:01:10;0.37;;;0.37;;
75096;SDS011;63684;47.964;11.186;2024-02-26T02:03:36;0.30;;;0.30;;
75096;SDS011;63684;47.964;11.186;2024-02-26T02:06:02;0.67;;;0.40;;
75096;SDS011;63684;47.964;11.186;2024-02-26T02:08:28;0.30;;;0.30;;
75096;SDS011;63684;47.964;11.186;2024-02-26T02:10:54;0.60;;;0.60;;
75096;SDS011;63684;47.964;11.186;2024-02-26T02:13:19;0.80;;;0.60;;
75096;SDS011;63684;47.964;11.186;2024-02-26T02:15:45;0.43;;;0.40;;
75096;SDS011;63684;47.964;11.186;2024-02-26T02:18:10;0.60;;;0.60;;
75096;SDS011;63684;47.964;11.186;2024-02-26T02:20:36;0.50;;;0.40;;
75096;SDS011;63684;47.964;11.186;2024-02-26T02:23:02;0.50;;;0.40;;
75096;SDS011;63684;47.964;11.186;2024-02-26T02:25:28;0.43;;;0.43;;
75096;SDS011;63684;47.964;11.186;2024-02-26T02:27:54;0.70;;;0.40;;
75096;SDS011;63684;47.964;11.186;2024-02-26T02:30:21;1.77;;;0.30;;
75096;SDS011;63684;47.964;11.186;2024-02-26T02:32:47;0.93;;;0.50;;
75096;SDS011;63684;47.964;11.186;2024-02-26T02:35:12;0.67;;;0.57;;
75096;SDS011;63684;47.964;11.186;2024-02-26T02:37:38;0.40;;;0.40;;
75096;SDS011;63684;47.964;11.186;2024-02-26T02:40:03;0.40;;;0.40;;
75096;SDS011;63684;47.964;11.186;2024-02-26T02:42:30;0.57;;;0.40;;
75096;SDS011;63684;47.964;11.186;2024-02-26T02:44:56;0.30;;;0.30;;
75096;SDS011;63684;47.964;11.186;2024-02-26T02:47:22;0.73;;;0.30;;
75096;SDS011;63684;47.964;11.186;2024-02-26T02:49:47;1.20;;;0.40;;
75096;SDS011;63684;47.964;11.186;2024-02-26T02:52:13;2.53;;;0.77;;
75096;SDS011;63684;47.964;11.186;2024-02-26T02:54:38;0.60;;;0.40;;
75096;SDS011;63684;47.964;11.186;2024-02-26T02:57:06;0.70;;;0.60;;
75096;SDS011;63684;47.964;11.186;2024-02-26T02:59:32;0.30;;;0.30;;
75096;SDS011;63684;47.964;11.186;2024-02-26T03:01:58;1.47;;;0.40;;
75096;SDS011;63684;47.964;11.186;2024-02-26T03:04:23;0.30;;;0.30;;
75096;SDS011;63684;47.964;11.186;2024-02-26T03:06:49;0.30;;;0.30;;
75096;SDS011;63684;47.964;11.186;2024-02-26T03:09:14;0.83;;;0.47;;
75096;SDS011;63684;47.964;11.186;2024-02-26T03:11:40;0.33;;;0.33;;
75096;SDS011;63684;47.964;11.186;2024-02-26T03:14:05;0.70;;;0.40;;
75096;SDS011;63684;47.964;11.186;2024-02-26T03:16:31;0.40;;;0.40;;
75096;SDS011;63684;47.964;11.186;2024-02-26T03:18:57;1.07;;;0.40;;
75096;SDS011;63684;47.964;11.186;2024-02-26T03:21:24;0.30;;;0.30;;
75096;SDS011;63684;47.964;11.186;2024-02-26T03:23:50;0.30;;;0.30;;
75096;SDS011;63684;47.964;11.186;2024-02-26T03:26:16;0.30;;;0.30;;
75096;SDS011;63684;47.964;11.186;2024-02-26T03:28:41;1.07;;;0.67;;
75096;SDS011;63684;47.964;11.186;2024-02-26T03:31:07;0.40;;;0.40;;
75096;SDS011;63684;47.964;11.186;2024-02-26T03:33:32;0.53;;;0.40;;
75096;SDS011;63684;47.964;11.186;2024-02-26T03:35:59;0.40;;;0.40;;
75096;SDS011;63684;47.964;11.186;2024-02-26T03:38:24;0.30;;;0.30;;
75096;SDS011;63684;47.964;11.186;2024-02-26T03:40:50;0.77;;;0.40;;
75096;SDS011;63684;47.964;11.186;2024-02-26T03:43:16;0.60;;;0.40;;
75096;SDS011;63684;47.964;11.186;2024-02-26T03:45:42;0.40;;;0.40;;
75096;SDS011;63684;47.964;11.186;2024-02-26T03:48:07;0.40;;;0.40;;
75096;SDS011;63684;47.964;11.186;2024-02-26T03:50:33;1.20;;;0.40;;
75096;SDS011;63684;47.964;11.186;2024-02-26T03:52:59;0.43;;;0.43;;
75096;SDS011;63684;47.964;11.186;2024-02-26T03:55:25;0.97;;;0.33;;
75096;SDS011;63684;47.964;11.186;2024-02-26T03:57:53;0.40;;;0.40;;
75096;SDS011;63684;47.964;11.186;2024-02-26T04:00:19;0.60;;;0.30;;
75096;SDS011;63684;47.964;11.186;2024-02-26T04:02:46;0.40;;;0.40;;
75096;SDS011;63684;47.964;11.186;2024-02-26T04:05:12;0.40;;;0.40;;
75096;SDS011;63684;47.964;11.186;2024-02-26T04:07:38;0.43;;;0.43;;
75096;SDS011;63684;47.964;11.186;2024-02-26T04:10:08;0.33;;;0.33;;
75096;SDS011;63684;47.964;11.186;2024-02-26T04:12:34;0.30;;;0.30;;
75096;SDS011;63684;47.964;11.186;2024-02-26T04:15:00;0.47;;;0.40;;
75096;SDS011;63684;47.964;11.186;2024-02-26T04:17:25;0.30;;;0.30;;
75096;SDS011;63684;47.964;11.186;2024-02-26T04:19:51;0.37;;;0.37;;
75096;SDS011;63684;47.964;11.186;2024-02-26T04:22:16;0.50;;;0.50;;
75096;SDS011;63684;47.964;11.186;2024-02-26T04:24:42;0.57;;;0.57;;
75096;SDS011;63684;47.964;11.186;2024-02-26T04:27:08;0.40;;;0.40;;
75096;SDS011;63684;47.964;11.186;2024-02-26T04:29:33;0.63;;;0.50;;
75096;SDS011;63684;47.964;11.186;2024-02-26T04:31:58;0.40;;;0.40;;
75096;SDS011;63684;47.964;11.186;2024-02-26T04:34:24;0.43;;;0.43;;
75096;SDS011;63684;47.964;11.186;2024-02-26T04:36:50;0.47;;;0.40;;
75096;SDS011;63684;47.964;11.186;2024-02-26T04:39:16;0.40;;;0.40;;
75096;SDS011;63684;47.964;11.186;2024-02-26T04:41:41;0.83;;;0.40;;
75096;SDS011;63684;47.964;11.186;2024-02-26T04:44:07;0.67;;;0.60;;
75096;SDS011;63684;47.964;11.186;2024-02-26T04:46:32;0.40;;;0.40;;
75096;SDS011;63684;47.964;11.186;2024-02-26T04:48:58;0.50;;;0.50;;
75096;SDS011;63684;47.964;11.186;2024-02-26T04:51:23;0.67;;;0.67;;
75096;SDS011;63684;47.964;11.186;2024-02-26T04:53:49;0.80;;;0.80;;
75096;SDS011;63684;47.964;11.186;2024-02-26T04:56:14;0.70;;;0.70;;
75096;SDS011;63684;47.964;11.186;2024-02-26T04:58:40;0.93;;;0.93;;
75096;SDS011;63684;47.964;11.186;2024-02-26T05:01:06;3.17;;;0.73;;
75096;SDS011;63684;47.964;11.186;2024-02-26T05:03:31;1.87;;;1.30;;
75096;SDS011;63684;47.964;11.186;2024-02-26T05:05:57;2.50;;;1.00;;
75096;SDS011;63684;47.964;11.186;2024-02-26T05:08:23;0.67;;;0.63;;
75096;SDS011;63684;47.964;11.186;2024-02-26T05:10:49;1.00;;;0.77;;
75096;SDS011;63684;47.964;11.186;2024-02-26T05:13:14;3.13;;;0.60;;
75096;SDS011;63684;47.964;11.186;2024-02-26T05:15:43;0.73;;;0.70;;
75096;SDS011;63684;47.964;11.186;2024-02-26T05:18:09;1.70;;;0.50;;
75096;SDS011;63684;47.964;11.186;2024-02-26T05:20:34;0.43;;;0.43;;
75096;SDS011;63684;47.964;11.186;2024-02-26T05:23:01;0.50;;;0.40;;
75096;SDS011;63684;47.964;11.186;2024-02-26T05:25:27;0.50;;;0.50;;
75096;SDS011;63684;47.964;11.186;2024-02-26T05:27:52;2.07;;;0.40;;
75096;SDS011;63684;47.964;11.186;2024-02-26T05:30:18;0.63;;;0.53;;
75096;SDS011;63684;47.964;11.186;2024-02-26T05:32:43;1.40;;;0.50;;
75096;SDS011;63684;47.964;11.186;2024-02-26T05:35:09;0.63;;;0.50;;
75096;SDS011;63684;47.964;11.186;2024-02-26T05:37:34;28.80;;;18.93;;
75096;SDS011;63684;47.964;11.186;2024-02-26T05:40:00;140.93;;;68.07;;
75096;SDS011;63684;47.964;11.186;2024-02-26T05:42:25;71.53;;;40.27;;
75096;SDS011;63684;47.964;11.186;2024-02-26T05:44:51;12.17;;;7.60;;
75096;SDS011;63684;47.964;11.186;2024-02-26T05:47:16;11.23;;;6.10;;
75096;SDS011;63684;47.964;11.186;2024-02-26T05:49:43;6.90;;;3.87;;
75096;SDS011;63684;47.964;11.186;2024-02-26T05:52:08;5.73;;;2.87;;
75096;SDS011;63684;47.964;11.186;2024-02-26T05:54:34;3.20;;;1.83;;
75096;SDS011;63684;47.964;11.186;2024-02-26T05:56:59;4.50;;;1.07;;
75096;SDS011;63684;47.964;11.186;2024-02-26T05:59:25;0.73;;;0.60;;
75096;SDS011;63684;47.964;11.186;2024-02-26T06:01:50;1.00;;;0.90;;
75096;SDS011;63684;47.964;11.186;2024-02-26T06:04:16;1.57;;;1.10;;
75096;SDS011;63684;47.964;11.186;2024-02-26T06:06:43;7.30;;;1.37;;
75096;SDS011;63684;47.964;11.186;2024-02-26T06:09:10;1.07;;;0.97;;
75096;SDS011;63684;47.964;11.186;2024-02-26T06:11:36;0.70;;;0.70;;
75096;SDS011;63684;47.964;11.186;2024-02-26T06:14:02;1.63;;;0.97;;
75096;SDS011;63684;47.964;11.186;2024-02-26T06:16:28;1.63;;;0.70;;
75096;SDS011;63684;47.964;11.186;2024-02-26T06:18:53;4.37;;;1.00;;
75096;SDS011;63684;47.964;11.186;2024-02-26T06:21:19;1.53;;;0.70;;
75096;SDS011;63684;47.964;11.186;2024-02-26T06:23:44;2.07;;;0.70;;
75096;SDS011;63684;47.964;11.186;2024-02-26T06:26:10;0.80;;;0.80;;
75096;SDS011;63684;47.964;11.186;2024-02-26T06:28:35;4.70;;;0.50;;
75096;SDS011;63684;47.964;11.186;2024-02-26T06:31:01;1.03;;;0.60;;
75096;SDS011;63684;47.964;11.186;2024-02-26T06:33:27;3.87;;;0.60;;
75096;SDS011;63684;47.964;11.186;2024-02-26T06:35:53;5.20;;;0.60;;
75096;SDS011;63684;47.964;11.186;2024-02-26T06:38:18;4.17;;;0.73;;
75096;SDS011;63684;47.964;11.186;2024-02-26T06:40:44;4.10;;;0.50;;
75096;SDS011;63684;47.964;11.186;2024-02-26T06:43:10;0.77;;;0.70;;
75096;SDS011;63684;47.964;11.186;2024-02-26T06:45:36;1.70;;;0.73;;
75096;SDS011;63684;47.964;11.186;2024-02-26T06:48:01;0.63;;;0.60;;
75096;SDS011;63684;47.964;11.186;2024-02-26T06:50:27;6.80;;;1.30;;
75096;SDS011;63684;47.964;11.186;2024-02-26T06:52:53;7.50;;;0.80;;
75096;SDS011;63684;47.964;11.186;2024-02-26T06:55:18;0.50;;;0.50;;
75096;SDS011;63684;47.964;11.186;2024-02-26T06:57:44;13.70;;;0.83;;
75096;SDS011;63684;47.964;11.186;2024-02-26T07:00:10;2.10;;;0.63;;
75096;SDS011;63684;47.964;11.186;2024-02-26T07:02:39;1.13;;;0.60;;
75096;SDS011;63684;47.964;11.186;2024-02-26T07:05:05;0.73;;;0.50;;
75096;SDS011;63684;47.964;11.186;2024-02-26T07:07:31;3.67;;;0.90;;
75096;SDS011;63684;47.964;11.186;2024-02-26T07:09:57;7.53;;;1.20;;
75096;SDS011;63684;47.964;11.186;2024-02-26T07:12:23;3.53;;;1.07;;
75096;SDS011;63684;47.964;11.186;2024-02-26T07:14:49;5.23;;;1.07;;
75096;SDS011;63684;47.964;11.186;2024-02-26T07:17:15;5.90;;;1.10;;
75096;SDS011;63684;47.964;11.186;2024-02-26T07:19:41;7.50;;;0.80;;
75096;SDS011;63684;47.964;11.186;2024-02-26T07:22:07;3.13;;;0.83;;
75096;SDS011;63684;47.964;11.186;2024-02-26T07:24:33;2.80;;;0.80;;
75096;SDS011;63684;47.964;11.186;2024-02-26T07:26:59;2.60;;;0.80;;
75096;SDS011;63684;47.964;11.186;2024-02-26T07:29:24;6.30;;;0.80;;
75096;SDS011;63684;47.964;11.186;2024-02-26T07:31:50;5.23;;;0.70;;
75096;SDS011;63684;47.964;11.186;2024-02-26T07:34:15;9.87;;;1.10;;
75096;SDS011;63684;47.964;11.186;2024-02-26T07:36:41;3.00;;;0.63;;
75096;SDS011;63684;47.964;11.186;2024-02-26T07:39:06;4.73;;;0.60;;
75096;SDS011;63684;47.964;11.186;2024-02-26T07:41:32;4.30;;;1.63;;
75096;SDS011;63684;47.964;11.186;2024-02-26T07:43:58;2.70;;;1.90;;
75096;SDS011;63684;47.964;11.186;2024-02-26T07:46:23;3.30;;;2.30;;
75096;SDS011;63684;47.964;11.186;2024-02-26T07:48:49;3.10;;;1.43;;
75096;SDS011;63684;47.964;11.186;2024-02-26T07:51:14;2.67;;;1.43;;
75096;SDS011;63684;47.964;11.186;2024-02-26T07:53:40;2.73;;;1.23;;
75096;SDS011;63684;47.964;11.186;2024-02-26T07:56:06;6.20;;;1.17;;
75096;SDS011;63684;47.964;11.186;2024-02-26T07:58:32;2.87;;;0.60;;
75096;SDS011;63684;47.964;11.186;2024-02-26T08:00:58;1.47;;;0.40;;
75096;SDS011;63684;47.964;11.186;2024-02-26T08:03:24;0.73;;;0.50;;
75096;SDS011;63684;47.964;11.186;2024-02-26T08:05:54;0.80;;;0.50;;
75096;SDS011;63684;47.964;11.186;2024-02-26T08:08:29;0.90;;;0.70;;
75096;SDS011;63684;47.964;11.186;2024-02-26T08:11:00;1.60;;;0.53;;
75096;SDS011;63684;47.964;11.186;2024-02-26T08:13:28;2.70;;;0.60;;
75096;SDS011;63684;47.964;11.186;2024-02-26T08:15:58;15.27;;;1.80;;
75096;SDS011;63684;47.964;11.186;2024-02-26T08:18:24;8.43;;;0.70;;
75096;SDS011;63684;47.964;11.186;2024-02-26T08:20:49;0.40;;;0.40;;
75096;SDS011;63684;47.964;11.186;2024-02-26T08:23:15;0.60;;;0.50;;
75096;SDS011;63684;47.964;11.186;2024-02-26T08:29:28;0.40;;;0.40;;
75096;SDS011;63684;47.964;11.186;2024-02-26T08:31:53;0.57;;;0.40;;
75096;SDS011;63684;47.964;11.186;2024-02-26T08:34:18;0.43;;;0.43;;
75096;SDS011;63684;47.964;11.186;2024-02-26T08:36:44;0.93;;;0.57;;
75096;SDS011;63684;47.964;11.186;2024-02-26T08:39:09;0.50;;;0.50;;
75096;SDS011;63684;47.964;11.186;2024-02-26T08:41:35;0.40;;;0.33;;
75096;SDS011;63684;47.964;11.186;2024-02-26T08:44:00;2.90;;;0.50;;
75096;SDS011;63684;47.964;11.186;2024-02-26T08:46:26;6.87;;;0.70;;
75096;SDS011;63684;47.964;11.186;2024-02-26T08:48:51;0.70;;;0.60;;
75096;SDS011;63684;47.964;11.186;2024-02-26T08:51:17;0.93;;;0.60;;
75096;SDS011;63684;47.964;11.186;2024-02-26T08:53:42;0.50;;;0.47;;
75096;SDS011;63684;47.964;11.186;2024-02-26T08:56:08;0.53;;;0.50;;
75096;SDS011;63684;47.964;11.186;2024-02-26T08:58:33;6.60;;;0.70;;
75096;SDS011;63684;47.964;11.186;2024-02-26T09:00:59;3.13;;;0.90;;
75096;SDS011;63684;47.964;11.186;2024-02-26T09:03:24;6.17;;;0.80;;
75096;SDS011;63684;47.964;11.186;2024-02-26T09:05:51;2.83;;;0.70;;
75096;SDS011;63684;47.964;11.186;2024-02-26T09:08:16;5.33;;;0.87;;
75096;SDS011;63684;47.964;11.186;2024-02-26T09:10:42;3.13;;;0.77;;
75096;SDS011;63684;47.964;11.186;2024-02-26T09:13:08;0.47;;;0.47;;
75096;SDS011;63684;47.964;11.186;2024-02-26T09:15:33;1.87;;;0.63;;
75096;SDS011;63684;47.964;11.186;2024-02-26T09:17:59;1.73;;;0.53;;
75096;SDS011;63684;47.964;11.186;2024-02-26T09:20:24;6.37;;;1.00;;
75096;SDS011;63684;47.964;11.186;2024-02-26T09:22:50;4.90;;;0.90;;
75096;SDS011;63684;47.964;11.186;2024-02-26T09:25:16;1.57;;;0.60;;
75096;SDS011;63684;47.964;11.186;2024-02-26T09:27:42;0.70;;;0.70;;
75096;SDS011;63684;47.964;11.186;2024-02-26T09:30:09;0.93;;;0.80;;
75096;SDS011;63684;47.964;11.186;2024-02-26T09:32:35;6.37;;;1.40;;
75096;SDS011;63684;47.964;11.186;2024-02-26T09:35:01;1.70;;;0.70;;
75096;SDS011;63684;47.964;11.186;2024-02-26T09:37:26;0.97;;;0.43;;
75096;SDS011;63684;47.964;11.186;2024-02-26T09:39:52;1.90;;;0.50;;
75096;SDS011;63684;47.964;11.186;2024-02-26T09:42:18;1.93;;;0.77;;
75096;SDS011;63684;47.964;11.186;2024-02-26T09:44:44;1.27;;;0.50;;
75096;SDS011;63684;47.964;11.186;2024-02-26T09:47:10;1.67;;;0.60;;
75096;SDS011;63684;47.964;11.186;2024-02-26T09:49:37;5.03;;;0.73;;
75096;SDS011;63684;47.964;11.186;2024-02-26T09:52:04;0.40;;;0.40;;
75096;SDS011;63684;47.964;11.186;2024-02-26T09:54:30;5.50;;;0.70;;
75096;SDS011;63684;47.964;11.186;2024-02-26T09:57:00;2.63;;;0.70;;
75096;SDS011;63684;47.964;11.186;2024-02-26T09:59:37;1.00;;;0.60;;
75096;SDS011;63684;47.964;11.186;2024-02-26T10:02:05;3.30;;;0.70;;
75096;SDS011;63684;47.964;11.186;2024-02-26T10:04:42;3.03;;;0.40;;
75096;SDS011;63684;47.964;11.186;2024-02-26T10:07:11;5.00;;;0.80;;
75096;SDS011;63684;47.964;11.186;2024-02-26T10:09:38;5.77;;;0.60;;
75096;SDS011;63684;47.964;11.186;2024-02-26T10:12:04;0.90;;;0.50;;
75096;SDS011;63684;47.964;11.186;2024-02-26T10:14:30;3.83;;;0.60;;
75096;SDS011;63684;47.964;11.186;2024-02-26T10:16:55;1.67;;;0.47;;
75096;SDS011;63684;47.964;11.186;2024-02-26T10:19:28;0.40;;;0.37;;
75096;SDS011;63684;47.964;11.186;2024-02-26T10:21:58;0.43;;;0.40;;
75096;SDS011;63684;47.964;11.186;2024-02-26T10:24:25;0.30;;;0.30;;
75096;SDS011;63684;47.964;11.186;2024-02-26T10:26:54;0.63;;;0.40;;
75096;SDS011;63684;47.964;11.186;2024-02-26T10:29:20;0.63;;;0.30;;
75096;SDS011;63684;47.964;11.186;2024-02-26T10:31:46;1.03;;;0.50;;
75096;SDS011;63684;47.964;11.186;2024-02-26T10:34:12;8.23;;;1.07;;
75096;SDS011;63684;47.964;11.186;2024-02-26T10:36:38;4.30;;;0.77;;
75096;SDS011;63684;47.964;11.186;2024-02-26T10:39:06;3.37;;;0.60;;
75096;SDS011;63684;47.964;11.186;2024-02-26T10:41:35;2.77;;;0.70;;
75096;SDS011;63684;47.964;11.186;2024-02-26T10:44:00;0.50;;;0.50;;
75096;SDS011;63684;47.964;11.186;2024-02-26T10:46:26;2.57;;;0.73;;
75096;SDS011;63684;47.964;11.186;2024-02-26T10:48:51;5.03;;;0.60;;
75096;SDS011;63684;47.964;11.186;2024-02-26T10:51:20;1.87;;;0.50;;
75096;SDS011;63684;47.964;11.186;2024-02-26T10:53:47;2.47;;;0.50;;
75096;SDS011;63684;47.964;11.186;2024-02-26T10:56:13;0.57;;;0.30;;
75096;SDS011;63684;47.964;11.186;2024-02-26T10:58:40;0.53;;;0.40;;
75096;SDS011;63684;47.964;11.186;2024-02-26T11:01:06;0.30;;;0.30;;
75096;SDS011;63684;47.964;11.186;2024-02-26T11:03:32;1.10;;;0.30;;
75096;SDS011;63684;47.964;11.186;2024-02-26T11:05:59;3.83;;;0.57;;
75096;SDS011;63684;47.964;11.186;2024-02-26T11:08:25;4.43;;;0.50;;
75096;SDS011;63684;47.964;11.186;2024-02-26T11:10:52;2.07;;;0.30;;
75096;SDS011;63684;47.964;11.186;2024-02-26T11:13:19;3.93;;;0.60;;
75096;SDS011;63684;47.964;11.186;2024-02-26T11:15:48;3.20;;;0.47;;
75096;SDS011;63684;47.964;11.186;2024-02-26T11:18:17;2.17;;;0.57;;
75096;SDS011;63684;47.964;11.186;2024-02-26T11:20:43;1.47;;;0.43;;
75096;SDS011;63684;47.964;11.186;2024-02-26T11:23:10;2.50;;;0.50;;
75096;SDS011;63684;47.964;11.186;2024-02-26T11:25:35;1.20;;;0.47;;
75096;SDS011;63684;47.964;11.186;2024-02-26T11:28:04;0.20;;;0.20;;
75096;SDS011;63684;47.964;11.186;2024-02-26T11:30:31;0.67;;;0.43;;
75096;SDS011;63684;47.964;11.186;2024-02-26T11:32:58;1.63;;;0.20;;
75096;SDS011;63684;47.964;11.186;2024-02-26T11:35:24;0.80;;;0.33;;
75096;SDS011;63684;47.964;11.186;2024-02-26T11:37:53;3.87;;;0.50;;
75096;SDS011;63684;47.964;11.186;2024-02-26T11:40:19;0.23;;;0.23;;
75096;SDS011;63684;47.964;11.186;2024-02-26T11:42:44;0.50;;;0.50;;
75096;SDS011;63684;47.964;11.186;2024-02-26T11:48:04;0.40;;;0.37;;
75096;SDS011;63684;47.964;11.186;2024-02-26T11:50:38;1.23;;;0.37;;
75096;SDS011;63684;47.964;11.186;2024-02-26T11:53:27;0.60;;;0.57;;
75096;SDS011;63684;47.964;11.186;2024-02-26T11:59:08;0.30;;;0.30;;
75096;SDS011;63684;47.964;11.186;2024-02-26T12:04:04;0.40;;;0.40;;
75096;SDS011;63684;47.964;11.186;2024-02-26T12:06:43;3.90;;;0.50;;
75096;SDS011;63684;47.964;11.186;2024-02-26T12:09:10;2.80;;;0.60;;
75096;SDS011;63684;47.964;11.186;2024-02-26T12:11:40;0.63;;;0.40;;
75096;SDS011;63684;47.964;11.186;2024-02-26T12:14:07;0.20;;;0.20;;
75096;SDS011;63684;47.964;11.186;2024-02-26T12:16:39;0.30;;;0.30;;
75096;SDS011;63684;47.964;11.186;2024-02-26T12:19:08;0.43;;;0.30;;
75096;SDS011;63684;47.964;11.186;2024-02-26T12:21:34;0.40;;;0.40;;
75096;SDS011;63684;47.964;11.186;2024-02-26T12:24:34;0.67;;;0.40;;
75096;SDS011;63684;47.964;11.186;2024-02-26T12:26:53;0.30;;;0.30;;
75096;SDS011;63684;47.964;11.186;2024-02-26T12:29:18;0.10;;;0.10;;
75096;SDS011;63684;47.964;11.186;2024-02-26T12:31:44;0.40;;;0.30;;
75096;SDS011;63684;47.964;11.186;2024-02-26T12:34:09;0.50;;;0.30;;
75096;SDS011;63684;47.964;11.186;2024-02-26T12:36:35;2.17;;;0.30;;
75096;SDS011;63684;47.964;11.186;2024-02-26T12:39:04;0.70;;;0.40;;
75096;SDS011;63684;47.964;11.186;2024-02-26T12:41:34;0.37;;;0.37;;
75096;SDS011;63684;47.964;11.186;2024-02-26T12:44:00;0.33;;;0.33;;
75096;SDS011;63684;47.964;11.186;2024-02-26T12:46:26;2.53;;;0.30;;
75096;SDS011;63684;47.964;11.186;2024-02-26T12:48:51;1.37;;;0.47;;
75096;SDS011;63684;47.964;11.186;2024-02-26T12:51:17;0.33;;;0.33;;
75096;SDS011;63684;47.964;11.186;2024-02-26T12:53:43;2.92;;;0.40;;
75096;SDS011;63684;47.964;11.186;2024-02-26T12:56:10;0.23;;;0.23;;
75096;SDS011;63684;47.964;11.186;2024-02-26T12:58:38;0.50;;;0.35;;
75096;SDS011;63684;47.964;11.186;2024-02-26T13:01:04;0.40;;;0.40;;
75096;SDS011;63684;47.964;11.186;2024-02-26T13:03:31;2.43;;;0.50;;
75096;SDS011;63684;47.964;11.186;2024-02-26T13:05:57;1.10;;;0.77;;
75096;SDS011;63684;47.964;11.186;2024-02-26T13:08:23;4.57;;;0.87;;
75096;SDS011;63684;47.964;11.186;2024-02-26T13:10:49;3.53;;;0.40;;
75096;SDS011;63684;47.964;11.186;2024-02-26T13:13:17;3.23;;;0.50;;
75096;SDS011;63684;47.964;11.186;2024-02-26T13:15:43;0.67;;;0.40;;
75096;SDS011;63684;47.964;11.186;2024-02-26T13:18:13;1.00;;;0.50;;
75096;SDS011;63684;47.964;11.186;2024-02-26T13:20:39;0.50;;;0.30;;
75096;SDS011;63684;47.964;11.186;2024-02-26T13:23:10;1.00;;;0.40;;
75096;SDS011;63684;47.964;11.186;2024-02-26T13:25:36;0.50;;;0.50;;
75096;SDS011;63684;47.964;11.186;2024-02-26T13:28:17;3.70;;;0.40;;
75096;SDS011;63684;47.964;11.186;2024-02-26T13:30:57;0.80;;;0.43;;
75096;SDS011;63684;47.964;11.186;2024-02-26T13:33:23;0.60;;;0.40;;
75096;SDS011;63684;47.964;11.186;2024-02-26T13:35:49;1.47;;;0.70;;
75096;SDS011;63684;47.964;11.186;2024-02-26T13:38:15;0.83;;;0.60;;
75096;SDS011;63684;47.964;11.186;2024-02-26T13:40:41;0.23;;;0.23;;
75096;SDS011;63684;47.964;11.186;2024-02-26T13:43:07;3.50;;;0.30;;
75096;SDS011;63684;47.964;11.186;2024-02-26T13:45:36;0.97;;;0.47;;
75096;SDS011;63684;47.964;11.186;2024-02-26T13:48:06;0.70;;;0.50;;
75096;SDS011;63684;47.964;11.186;2024-02-26T13:50:32;3.87;;;0.80;;
75096;SDS011;63684;47.964;11.186;2024-02-26T13:52:58;1.83;;;0.60;;
75096;SDS011;63684;47.964;11.186;2024-02-26T13:55:27;2.80;;;0.50;;
75096;SDS011;63684;47.964;11.186;2024-02-26T13:57:57;0.20;;;0.20;;
75096;SDS011;63684;47.964;11.186;2024-02-26T14:00:23;2.93;;;0.40;;
75096;SDS011;63684;47.964;11.186;2024-02-26T14:02:50;2.00;;;0.30;;
75096;SDS011;63684;47.964;11.186;2024-02-26T14:05:15;1.17;;;0.77;;
75096;SDS011;63684;47.964;11.186;2024-02-26T14:07:41;2.80;;;0.60;;
75096;SDS011;63684;47.964;11.186;2024-02-26T14:10:07;0.83;;;0.70;;
75096;SDS011;63684;47.964;11.186;2024-02-26T14:12:35;1.57;;;0.50;;
75096;SDS011;63684;47.964;11.186;2024-02-26T14:15:00;2.10;;;0.30;;
75096;SDS011;63684;47.964;11.186;2024-02-26T14:17:29;0.83;;;0.33;;
75096;SDS011;63684;47.964;11.186;2024-02-26T14:19:55;2.13;;;0.30;;
75096;SDS011;63684;47.964;11.186;2024-02-26T14:22:20;1.40;;;0.47;;
75096;SDS011;63684;47.964;11.186;2024-02-26T14:24:46;0.50;;;0.50;;
75096;SDS011;63684;47.964;11.186;2024-02-26T14:27:11;0.23;;;0.23;;
75096;SDS011;63684;47.964;11.186;2024-02-26T14:29:44;0.80;;;0.67;;
75096;SDS011;63684;47.964;11.186;2024-02-26T14:32:09;0.30;;;0.30;;
75096;SDS011;63684;47.964;11.186;2024-02-26T14:34:35;1.90;;;0.43;;
75096;SDS011;63684;47.964;11.186;2024-02-26T14:37:01;0.83;;;0.50;;
75096;SDS011;63684;47.964;11.186;2024-02-26T14:39:26;0.70;;;0.30;;
75096;SDS011;63684;47.964;11.186;2024-02-26T14:41:52;1.03;;;0.60;;